Valdivia, Valdivia Pichoy Airport (SCVD)

NameValdivia Pichoy Airport
CityValdivia
CountryChile
ICAOSCVD
IATAZAL
Altitude18 m
CoordinatesGoogle Map
Live Air TrafficLiveATC.net
METARSCVD 172200Z AUTO 23007KT CAVOK 13/07 Q1024
2019-10-17 22:00:00 Wind: Southwest (230°) 3.6 m/s - Visibility: > 10000 m - Weather: CAVOK - Temperature: 13 °C - Dew point: 7 °C - Humidity: 67.2% - Pressure: 1024 hPa
Statistics

The table below shows the detailed information of all flights to/from Valdivia, Valdivia Pichoy Airport (SCVD).